Time;durP1;ratioP1;P1;durP2;ratioP2;P2;SDS_P1;SDS_P2;PMS_P1;PMS_P2;Temp;Humidity;BMP_temperature;BMP_pressure;BME280_temperature;BME280_humidity;BME280_pressure;Samples;Min_cycle;Max_cycle;Signal;HPM_P1;HPM_P2
2023/06/23 00:00:14;;;;;;;15.25;10.88;;;;;;;;;;5049898;28;20651;-69
2023/06/23 00:02:42;;;;;;;13.82;10.57;;;;;;;;;;5049663;28;20202;-69
2023/06/23 00:05:11;;;;;;;14.45;10.40;;;;;;;;;;5046838;28;20221;-69
2023/06/23 00:07:36;;;;;;;16.15;11.20;;;;;;;;;;5047924;28;20204;-69
2023/06/23 00:10:05;;;;;;;18.70;12.13;;;;;;;;;;5049830;28;20178;-69
2023/06/23 00:12:32;;;;;;;13.00;10.63;;;;;;;;;;5054508;28;20640;-69
2023/06/23 00:14:57;;;;;;;16.33;10.73;;;;;;;;;;5049646;28;20198;-69
2023/06/23 00:17:23;;;;;;;14.13;10.88;;;;;;;;;;5065733;28;20643;-69
2023/06/23 00:19:48;;;;;;;15.75;10.63;;;;;;;;;;5048908;28;20177;-69
2023/06/23 00:22:14;;;;;;;11.30;9.43;;;;;;;;;;5047057;28;20177;-68
2023/06/23 00:24:40;;;;;;;15.90;11.70;;;;;;;;;;5046017;28;20173;-68
2023/06/23 00:27:06;;;;;;;15.63;10.40;;;;;;;;;;5048500;28;20201;-71
2023/06/23 00:29:31;;;;;;;13.85;10.13;;;;;;;;;;5048261;28;20544;-70
2023/06/23 00:31:56;;;;;;;13.00;10.02;;;;;;;;;;5064135;28;20651;-71
2023/06/23 00:34:22;;;;;;;14.68;10.10;;;;;;;;;;5045963;28;20514;-70
2023/06/23 00:36:47;;;;;;;15.05;10.45;;;;;;;;;;5061794;28;20258;-71
2023/06/23 00:39:13;;;;;;;12.07;9.20;;;;;;;;;;5046690;28;20209;-71
2023/06/23 00:41:38;;;;;;;14.73;10.55;;;;;;;;;;5041529;28;20205;-71
2023/06/23 00:44:07;;;;;;;13.75;10.63;;;;;;;;;;5043347;28;20655;-71
2023/06/23 00:46:32;;;;;;;16.40;11.60;;;;;;;;;;5043300;28;20197;-70
2023/06/23 00:49:00;;;;;;;15.80;10.77;;;;;;;;;;5046506;28;20184;-70
2023/06/23 00:51:26;;;;;;;15.75;11.55;;;;;;;;;;5043558;28;20178;-71
2023/06/23 00:53:51;;;;;;;16.50;12.93;;;;;;;;;;5040656;28;20182;-71
2023/06/23 00:56:18;;;;;;;16.73;12.27;;;;;;;;;;5044711;28;20296;-71
2023/06/23 00:58:43;;;;;;;18.00;13.57;;;;;;;;;;5064481;28;20205;-71
2023/06/23 01:01:10;;;;;;;21.65;14.30;;;;;;;;;;5048230;28;20217;-70
2023/06/23 01:03:36;;;;;;;19.50;13.73;;;;;;;;;;5046917;28;20177;-71
2023/06/23 01:06:06;;;;;;;22.55;15.25;;;;;;;;;;5046756;28;20683;-71
2023/06/23 01:08:42;;;;;;;19.33;13.90;;;;;;;;;;5049458;28;20236;-70
2023/06/23 01:11:18;;;;;;;21.58;14.82;;;;;;;;;;5063430;28;20219;-71
2023/06/23 01:13:53;;;;;;;22.65;15.43;;;;;;;;;;5049022;28;20526;-71
2023/06/23 01:16:26;;;;;;;20.55;15.63;;;;;;;;;;5047404;28;20197;-71
2023/06/23 01:18:58;;;;;;;35.72;18.08;;;;;;;;;;5040703;28;20265;-70
2023/06/23 01:21:44;;;;;;;24.13;17.42;;;;;;;;;;5040151;28;20209;-71
2023/06/23 01:24:18;;;;;;;29.83;19.30;;;;;;;;;;5038579;28;20772;-70
2023/06/23 01:26:46;;;;;;;25.95;18.88;;;;;;;;;;5048785;28;20220;-70
2023/06/23 01:29:14;;;;;;;25.55;18.75;;;;;;;;;;5043660;28;20739;-71
2023/06/23 01:31:39;;;;;;;28.67;18.70;;;;;;;;;;5051358;28;20268;-70
2023/06/23 01:34:08;;;;;;;26.10;18.40;;;;;;;;;;5064727;28;20285;-71
2023/06/23 01:36:42;;;;;;;29.58;20.60;;;;;;;;;;5045527;28;20197;-70
2023/06/23 01:39:11;;;;;;;27.67;19.20;;;;;;;;;;5052146;28;20636;-71
2023/06/23 01:41:52;;;;;;;31.70;21.08;;;;;;;;;;5051774;28;20556;-70
2023/06/23 01:44:19;;;;;;;28.25;19.60;;;;;;;;;;5051288;28;20260;-71
2023/06/23 01:46:46;;;;;;;29.30;20.83;;;;;;;;;;5052580;28;20209;-71
2023/06/23 01:49:14;;;;;;;31.80;21.48;;;;;;;;;;5052214;28;20185;-71
2023/06/23 01:51:43;;;;;;;33.78;22.92;;;;;;;;;;5047104;28;20181;-71
2023/06/23 01:54:09;;;;;;;33.80;21.20;;;;;;;;;;5047621;28;20185;-71
2023/06/23 01:56:35;;;;;;;31.95;21.08;;;;;;;;;;5044666;28;20194;-71
2023/06/23 01:59:02;;;;;;;34.22;22.05;;;;;;;;;;5047633;28;20223;-71
2023/06/23 02:01:28;;;;;;;32.30;22.25;;;;;;;;;;5055183;28;20329;-71
2023/06/23 02:03:55;;;;;;;32.17;23.08;;;;;;;;;;5043312;28;20200;-70
2023/06/23 02:06:20;;;;;;;39.40;25.23;;;;;;;;;;5054880;28;20254;-70
2023/06/23 02:08:47;;;;;;;36.60;24.08;;;;;;;;;;5053676;28;20177;-70
2023/06/23 02:11:13;;;;;;;36.80;24.67;;;;;;;;;;5040136;28;20678;-71
2023/06/23 02:13:39;;;;;;;37.50;25.45;;;;;;;;;;5061717;28;20177;-71
2023/06/23 02:16:05;;;;;;;39.83;27.67;;;;;;;;;;5046921;28;20232;-71
2023/06/23 02:18:35;;;;;;;41.72;24.42;;;;;;;;;;5044768;28;20221;-71
2023/06/23 02:21:01;;;;;;;38.20;25.85;;;;;;;;;;5043421;28;20177;-71
2023/06/23 02:23:27;;;;;;;37.88;25.38;;;;;;;;;;5048358;28;20177;-71
2023/06/23 02:25:52;;;;;;;37.53;25.85;;;;;;;;;;5042494;28;20309;-71
2023/06/23 02:28:18;;;;;;;37.00;24.95;;;;;;;;;;5044724;28;20205;-70
2023/06/23 02:30:44;;;;;;;38.05;26.13;;;;;;;;;;5061697;28;20212;-70
2023/06/23 02:33:09;;;;;;;44.47;28.38;;;;;;;;;;5051065;28;20174;-71
2023/06/23 02:35:34;;;;;;;45.58;27.95;;;;;;;;;;5050222;28;20216;-71
2023/06/23 02:38:01;;;;;;;42.95;27.92;;;;;;;;;;5046612;28;20189;-71
2023/06/23 02:40:29;;;;;;;44.60;27.92;;;;;;;;;;5045727;28;20196;-71
2023/06/23 02:43:15;;;;;;;45.30;29.02;;;;;;;;;;5049459;28;20243;-70
2023/06/23 02:45:42;;;;;;;45.35;27.83;;;;;;;;;;5042502;28;20267;-70
2023/06/23 02:48:09;;;;;;;43.90;25.80;;;;;;;;;;5045195;28;20206;-70
2023/06/23 02:50:35;;;;;;;43.63;27.65;;;;;;;;;;5038700;28;20738;-70
2023/06/23 02:53:06;;;;;;;44.30;26.25;;;;;;;;;;5042382;28;20177;-70
2023/06/23 02:55:35;;;;;;;41.35;27.35;;;;;;;;;;5047666;28;20194;-70
2023/06/23 02:58:02;;;;;;;42.17;28.65;;;;;;;;;;5051063;28;20182;-70
2023/06/23 03:00:28;;;;;;;43.80;27.73;;;;;;;;;;5041714;28;20194;-70
2023/06/23 03:02:57;;;;;;;47.05;29.52;;;;;;;;;;5046549;28;20547;-69
2023/06/23 03:05:22;;;;;;;46.42;29.40;;;;;;;;;;5049374;28;20335;-70
2023/06/23 03:07:49;;;;;;;50.75;29.35;;;;;;;;;;5040879;28;20296;-70
2023/06/23 03:10:15;;;;;;;57.13;29.55;;;;;;;;;;5065642;28;20556;-70
2023/06/23 03:12:40;;;;;;;53.50;29.73;;;;;;;;;;5038227;28;20398;-71
2023/06/23 03:15:05;;;;;;;45.83;28.95;;;;;;;;;;5061742;28;20300;-71
2023/06/23 03:17:32;;;;;;;52.05;30.52;;;;;;;;;;5051046;28;20646;-71
2023/06/23 03:20:05;;;;;;;47.63;28.45;;;;;;;;;;5041427;28;20177;-71
2023/06/23 03:22:34;;;;;;;52.55;29.75;;;;;;;;;;5043766;28;20562;-71
2023/06/23 03:25:03;;;;;;;46.30;29.98;;;;;;;;;;5048857;28;20279;-71
2023/06/23 03:27:30;;;;;;;49.60;29.67;;;;;;;;;;5045402;28;20210;-71
2023/06/23 03:30:00;;;;;;;46.35;28.02;;;;;;;;;;5058597;28;20535;-71
2023/06/23 03:32:28;;;;;;;56.28;30.70;;;;;;;;;;5046413;28;20173;-71
2023/06/23 03:34:58;;;;;;;53.15;30.30;;;;;;;;;;5050525;28;20194;-71
2023/06/23 03:37:26;;;;;;;49.85;29.77;;;;;;;;;;5043973;28;20235;-71
2023/06/23 03:39:54;;;;;;;46.10;28.70;;;;;;;;;;5048724;28;20169;-71
2023/06/23 03:42:21;;;;;;;47.25;30.23;;;;;;;;;;5048179;28;20200;-71
2023/06/23 03:44:47;;;;;;;49.45;29.48;;;;;;;;;;5051366;28;20166;-71
2023/06/23 03:47:17;;;;;;;54.15;30.77;;;;;;;;;;5050928;28;20271;-71
2023/06/23 03:49:44;;;;;;;48.13;29.77;;;;;;;;;;5050479;28;20174;-71
2023/06/23 03:52:10;;;;;;;50.80;28.08;;;;;;;;;;5056905;28;20220;-72
2023/06/23 03:54:38;;;;;;;51.33;28.92;;;;;;;;;;5046065;28;20587;-71
2023/06/23 03:57:04;;;;;;;50.20;29.52;;;;;;;;;;5051106;28;20192;-71
2023/06/23 03:59:30;;;;;;;55.25;27.38;;;;;;;;;;5050805;28;20235;-71
2023/06/23 04:01:56;;;;;;;47.38;27.77;;;;;;;;;;5050136;28;20177;-71
2023/06/23 04:04:23;;;;;;;50.33;28.52;;;;;;;;;;5067204;28;20205;-71
2023/06/23 04:06:48;;;;;;;57.60;28.83;;;;;;;;;;5053213;28;20220;-71
2023/06/23 04:09:15;;;;;;;51.80;30.15;;;;;;;;;;5052866;28;20217;-71
2023/06/23 04:11:41;;;;;;;50.15;29.08;;;;;;;;;;5047369;28;20176;-71
2023/06/23 04:14:08;;;;;;;52.05;28.30;;;;;;;;;;5052914;28;20161;-71
2023/06/23 04:16:34;;;;;;;50.97;28.77;;;;;;;;;;5053273;28;20193;-71
2023/06/23 04:19:01;;;;;;;53.88;29.95;;;;;;;;;;5053112;28;20176;-71
2023/06/23 04:21:27;;;;;;;49.55;28.40;;;;;;;;;;5049229;28;20261;-71
2023/06/23 04:23:53;;;;;;;47.92;27.90;;;;;;;;;;5044359;28;20220;-71
2023/06/23 04:26:19;;;;;;;49.80;28.85;;;;;;;;;;5052387;28;20609;-71
2023/06/23 04:28:45;;;;;;;45.85;25.92;;;;;;;;;;5052410;28;20276;-71
2023/06/23 04:31:11;;;;;;;43.55;26.65;;;;;;;;;;5046261;28;20227;-71
2023/06/23 04:33:36;;;;;;;45.50;26.52;;;;;;;;;;5054949;28;20598;-71
2023/06/23 04:36:10;;;;;;;41.72;26.23;;;;;;;;;;5053966;28;20200;-71
2023/06/23 04:38:37;;;;;;;44.28;25.88;;;;;;;;;;5070094;28;20176;-71
2023/06/23 04:41:07;;;;;;;39.28;24.67;;;;;;;;;;5051950;28;20184;-71
2023/06/23 04:43:36;;;;;;;41.28;24.25;;;;;;;;;;5046274;28;20220;-71
2023/06/23 04:46:15;;;;;;;40.58;24.90;;;;;;;;;;5049869;28;20194;-71
2023/06/23 04:48:42;;;;;;;45.42;24.95;;;;;;;;;;5046466;28;20201;-71
2023/06/23 04:51:08;;;;;;;37.80;23.55;;;;;;;;;;5049989;28;20185;-71
2023/06/23 04:53:38;;;;;;;38.58;23.38;;;;;;;;;;5055903;28;20655;-72
2023/06/23 04:56:04;;;;;;;41.72;22.38;;;;;;;;;;5048677;28;20198;-71
2023/06/23 04:58:33;;;;;;;38.88;23.48;;;;;;;;;;5053773;28;20716;-71
2023/06/23 05:00:59;;;;;;;36.70;23.95;;;;;;;;;;5048298;28;20182;-71
2023/06/23 05:03:26;;;;;;;40.05;23.95;;;;;;;;;;5051530;28;20283;-71
2023/06/23 05:05:52;;;;;;;38.45;23.15;;;;;;;;;;5052542;28;20215;-71
2023/06/23 05:08:18;;;;;;;39.63;24.77;;;;;;;;;;5053735;28;20208;-72
2023/06/23 05:10:44;;;;;;;37.03;23.20;;;;;;;;;;5051004;28;20185;-71
2023/06/23 05:13:10;;;;;;;39.53;25.30;;;;;;;;;;5065650;28;20257;-71
2023/06/23 05:15:35;;;;;;;43.25;25.05;;;;;;;;;;5042790;28;20198;-72
2023/06/23 05:18:02;;;;;;;37.70;23.58;;;;;;;;;;5047707;28;20234;-71
2023/06/23 05:20:28;;;;;;;40.80;24.58;;;;;;;;;;5051407;28;20565;-71
2023/06/23 05:22:55;;;;;;;41.28;25.45;;;;;;;;;;5062839;28;20182;-71
2023/06/23 05:25:23;;;;;;;43.10;26.60;;;;;;;;;;5047257;28;20259;-71
2023/06/23 05:27:52;;;;;;;47.22;26.33;;;;;;;;;;5050625;28;20198;-71
2023/06/23 05:30:18;;;;;;;41.53;25.13;;;;;;;;;;5045476;28;20169;-71
2023/06/23 05:32:45;;;;;;;46.30;26.42;;;;;;;;;;5057626;28;20227;-71
2023/06/23 05:35:11;;;;;;;44.00;26.75;;;;;;;;;;5050944;28;20194;-71
2023/06/23 05:37:38;;;;;;;44.45;27.48;;;;;;;;;;5047840;28;20192;-71
2023/06/23 05:40:05;;;;;;;44.15;25.38;;;;;;;;;;5051417;28;20227;-71
2023/06/23 05:42:32;;;;;;;42.95;26.48;;;;;;;;;;5043953;28;20177;-71
2023/06/23 05:44:58;;;;;;;46.92;26.77;;;;;;;;;;5051731;28;20197;-71
2023/06/23 05:47:26;;;;;;;36.88;24.75;;;;;;;;;;5044545;28;20293;-71
2023/06/23 05:49:53;;;;;;;39.83;25.08;;;;;;;;;;5050284;28;20595;-71
2023/06/23 05:52:19;;;;;;;33.28;23.05;;;;;;;;;;5045780;28;20176;-71
2023/06/23 05:54:45;;;;;;;37.95;24.17;;;;;;;;;;5049943;28;20182;-71
2023/06/23 05:57:14;;;;;;;42.28;25.20;;;;;;;;;;5045025;28;20671;-71
2023/06/23 05:59:44;;;;;;;38.47;24.80;;;;;;;;;;5042377;28;20173;-71
2023/06/23 06:02:16;;;;;;;34.63;22.85;;;;;;;;;;5051835;28;20186;-71
2023/06/23 06:04:43;;;;;;;35.35;23.13;;;;;;;;;;5052700;28;20658;-71
2023/06/23 06:07:09;;;;;;;36.97;22.08;;;;;;;;;;5050569;28;20729;-71
2023/06/23 06:09:35;;;;;;;38.50;23.13;;;;;;;;;;5042223;28;20698;-71
2023/06/23 06:12:02;;;;;;;33.08;21.45;;;;;;;;;;5051365;28;20174;-71
2023/06/23 06:14:29;;;;;;;29.75;20.48;;;;;;;;;;5044844;28;20202;-71
2023/06/23 06:16:55;;;;;;;30.95;22.08;;;;;;;;;;5043626;28;20209;-71
2023/06/23 06:19:22;;;;;;;31.30;20.92;;;;;;;;;;5047543;28;20184;-70
2023/06/23 06:21:48;;;;;;;30.50;20.90;;;;;;;;;;5045643;28;20189;-71
2023/06/23 06:24:13;;;;;;;32.53;21.02;;;;;;;;;;5047250;28;20205;-71
2023/06/23 06:26:41;;;;;;;31.02;20.02;;;;;;;;;;5062401;22;20673;-76
2023/06/23 06:29:06;;;;;;;28.80;20.48;;;;;;;;;;5052089;28;20185;-76
2023/06/23 06:31:32;;;;;;;30.05;19.73;;;;;;;;;;5045287;28;20177;-76
2023/06/23 06:33:59;;;;;;;26.27;19.27;;;;;;;;;;5052679;28;20178;-76
2023/06/23 06:36:25;;;;;;;22.45;16.50;;;;;;;;;;5055018;28;20596;-76
2023/06/23 06:38:51;;;;;;;21.92;16.75;;;;;;;;;;5043784;28;20196;-75
2023/06/23 06:41:17;;;;;;;26.58;17.50;;;;;;;;;;5047933;28;20623;-76
2023/06/23 06:43:42;;;;;;;24.85;15.52;;;;;;;;;;5050378;28;20188;-76
2023/06/23 06:46:09;;;;;;;20.67;15.82;;;;;;;;;;5043858;28;20209;-77
2023/06/23 06:48:34;;;;;;;20.63;14.68;;;;;;;;;;5041282;28;20529;-77
2023/06/23 06:51:00;;;;;;;19.35;15.50;;;;;;;;;;5045898;28;20628;-76
2023/06/23 06:53:26;;;;;;;19.85;14.65;;;;;;;;;;5052138;28;20570;-76
2023/06/23 06:55:52;;;;;;;19.20;14.55;;;;;;;;;;5045011;28;20217;-74
2023/06/23 06:58:17;;;;;;;22.25;14.35;;;;;;;;;;5039266;28;20186;-76
2023/06/23 07:00:43;;;;;;;18.02;13.05;;;;;;;;;;5043711;28;20261;-76
2023/06/23 07:03:12;;;;;;;16.77;13.02;;;;;;;;;;5044768;28;20224;-77
2023/06/23 07:05:37;;;;;;;16.58;12.05;;;;;;;;;;5039399;28;20674;-76
2023/06/23 07:08:03;;;;;;;15.40;11.85;;;;;;;;;;5044307;28;20205;-76
2023/06/23 07:10:29;;;;;;;16.52;11.65;;;;;;;;;;5051547;28;20264;-76
2023/06/23 07:12:54;;;;;;;20.70;13.10;;;;;;;;;;5049488;28;20181;-77
2023/06/23 07:15:19;;;;;;;18.60;12.75;;;;;;;;;;5051900;28;20285;-77
2023/06/23 07:17:45;;;;;;;17.20;12.35;;;;;;;;;;5050646;28;20169;-76
2023/06/23 07:20:10;;;;;;;15.55;12.00;;;;;;;;;;5051720;28;20212;-76
2023/06/23 07:22:36;;;;;;;16.80;12.18;;;;;;;;;;5050599;28;20541;-77
2023/06/23 07:25:01;;;;;;;17.85;10.07;;;;;;;;;;5048504;28;20186;-76
2023/06/23 07:27:26;;;;;;;11.50;9.77;;;;;;;;;;5050753;28;20201;-78
2023/06/23 07:29:51;;;;;;;14.85;10.13;;;;;;;;;;5051859;28;20178;-77
2023/06/23 07:32:17;;;;;;;11.43;9.32;;;;;;;;;;5051764;28;20177;-77
2023/06/23 07:34:42;;;;;;;14.07;10.75;;;;;;;;;;5045354;28;20177;-76
2023/06/23 07:37:10;;;;;;;11.40;9.55;;;;;;;;;;5049208;28;20587;-74
2023/06/23 07:39:36;;;;;;;11.85;9.77;;;;;;;;;;5051231;28;20185;-74
2023/06/23 07:42:01;;;;;;;11.23;9.02;;;;;;;;;;5049908;28;20269;-75
2023/06/23 07:44:26;;;;;;;12.55;8.70;;;;;;;;;;5052437;28;20213;-74
2023/06/23 07:46:52;;;;;;;12.00;7.93;;;;;;;;;;5048137;28;20251;-74
2023/06/23 07:49:17;;;;;;;13.07;8.75;;;;;;;;;;5051812;28;20454;-75
2023/06/23 07:51:42;;;;;;;9.85;7.93;;;;;;;;;;5042822;28;20173;-74
2023/06/23 07:54:07;;;;;;;11.15;8.02;;;;;;;;;;5048533;28;20227;-74
2023/06/23 07:56:33;;;;;;;10.53;7.57;;;;;;;;;;5047400;28;20253;-74
2023/06/23 07:58:58;;;;;;;11.00;7.78;;;;;;;;;;5042459;28;20423;-74
2023/06/23 08:01:23;;;;;;;10.18;7.45;;;;;;;;;;5041224;28;20177;-74
2023/06/23 08:03:48;;;;;;;10.93;7.45;;;;;;;;;;5046005;28;20227;-74
2023/06/23 08:06:14;;;;;;;9.23;6.45;;;;;;;;;;5045010;28;20200;-73
2023/06/23 08:08:40;;;;;;;10.45;7.53;;;;;;;;;;5045424;28;20213;-74
2023/06/23 08:11:05;;;;;;;10.02;7.15;;;;;;;;;;5047919;28;20180;-73
2023/06/23 08:13:30;;;;;;;10.00;7.18;;;;;;;;;;5049923;28;20182;-74
2023/06/23 08:15:56;;;;;;;8.98;7.30;;;;;;;;;;5045652;28;20198;-73
2023/06/23 08:18:21;;;;;;;10.23;7.35;;;;;;;;;;5041791;28;20200;-74
2023/06/23 08:20:46;;;;;;;8.27;6.40;;;;;;;;;;5054851;28;20161;-74
2023/06/23 08:23:11;;;;;;;9.52;5.97;;;;;;;;;;5049970;28;20894;-74
2023/06/23 08:25:37;;;;;;;7.47;5.78;;;;;;;;;;5041511;28;20709;-75
2023/06/23 08:28:02;;;;;;;6.43;5.77;;;;;;;;;;5044426;28;20205;-75
2023/06/23 08:30:29;;;;;;;11.80;5.43;;;;;;;;;;5043048;28;20415;-75
2023/06/23 08:32:54;;;;;;;5.78;4.90;;;;;;;;;;5050209;28;20268;-76
2023/06/23 08:35:20;;;;;;;8.05;5.35;;;;;;;;;;5055150;28;20206;-75
2023/06/23 08:37:45;;;;;;;6.25;4.85;;;;;;;;;;5050262;28;20250;-75
2023/06/23 08:40:10;;;;;;;7.53;5.13;;;;;;;;;;5049405;28;20240;-74
2023/06/23 08:42:36;;;;;;;5.47;4.13;;;;;;;;;;5048733;28;20426;-75
2023/06/23 08:45:03;;;;;;;9.00;4.85;;;;;;;;;;5052029;28;20253;-75
2023/06/23 08:47:30;;;;;;;6.13;5.20;;;;;;;;;;5046759;28;20276;-75
2023/06/23 08:49:55;;;;;;;6.00;4.18;;;;;;;;;;5050152;28;20178;-75
2023/06/23 08:52:21;;;;;;;7.25;4.57;;;;;;;;;;5048292;28;20257;-75
2023/06/23 08:54:47;;;;;;;6.82;5.07;;;;;;;;;;5051659;28;20188;-75
2023/06/23 08:57:12;;;;;;;6.65;4.88;;;;;;;;;;5047274;28;20675;-75
2023/06/23 08:59:37;;;;;;;6.70;5.13;;;;;;;;;;5051644;28;20244;-75
2023/06/23 09:02:03;;;;;;;6.15;3.63;;;;;;;;;;5046437;28;20730;-75
2023/06/23 09:04:28;;;;;;;5.60;4.35;;;;;;;;;;5049117;28;20189;-73
2023/06/23 09:06:54;;;;;;;5.75;4.28;;;;;;;;;;5051182;28;20264;-74
2023/06/23 09:09:20;;;;;;;7.03;4.67;;;;;;;;;;5052398;28;20182;-73
2023/06/23 09:11:45;;;;;;;11.52;5.43;;;;;;;;;;5048212;28;20406;-74
2023/06/23 09:14:11;;;;;;;4.85;3.58;;;;;;;;;;5040337;28;20657;-73
2023/06/23 09:16:37;;;;;;;7.53;3.67;;;;;;;;;;5047266;28;20790;-73
2023/06/23 09:19:04;;;;;;;3.75;3.15;;;;;;;;;;5046540;28;20569;-73
2023/06/23 09:21:30;;;;;;;5.30;3.00;;;;;;;;;;5047998;28;20257;-74
2023/06/23 09:23:59;;;;;;;3.25;2.70;;;;;;;;;;5054596;28;20679;-73
2023/06/23 09:26:25;;;;;;;4.35;3.00;;;;;;;;;;5051882;28;20216;-74
2023/06/23 09:28:50;;;;;;;3.05;2.45;;;;;;;;;;5048186;28;20198;-74
2023/06/23 09:31:16;;;;;;;5.53;2.08;;;;;;;;;;5053081;28;20176;-75
2023/06/23 09:33:48;;;;;;;3.85;2.45;;;;;;;;;;5047338;28;20273;-75
2023/06/23 09:36:13;;;;;;;3.78;2.35;;;;;;;;;;5050229;28;20192;-74
2023/06/23 09:38:39;;;;;;;3.53;2.42;;;;;;;;;;5044990;28;20190;-75
2023/06/23 09:41:07;;;;;;;4.70;2.65;;;;;;;;;;5052191;28;20260;-75
2023/06/23 09:43:40;;;;;;;4.57;2.33;;;;;;;;;;5049086;28;20722;-75
2023/06/23 09:46:06;;;;;;;3.50;2.63;;;;;;;;;;5047967;28;20209;-75
2023/06/23 09:48:32;;;;;;;3.88;2.50;;;;;;;;;;5042236;28;20193;-75
2023/06/23 09:51:01;;;;;;;4.10;2.53;;;;;;;;;;5052042;28;20180;-75
2023/06/23 09:53:30;;;;;;;5.65;2.72;;;;;;;;;;5054109;28;20174;-76
2023/06/23 09:55:55;;;;;;;3.35;2.50;;;;;;;;;;5050232;28;20197;-76
2023/06/23 09:58:21;;;;;;;3.20;2.42;;;;;;;;;;5057479;28;20182;-76
2023/06/23 10:00:46;;;;;;;2.35;2.15;;;;;;;;;;5050554;28;20201;-74
2023/06/23 10:03:11;;;;;;;2.80;2.47;;;;;;;;;;5050381;28;20212;-73
2023/06/23 10:05:38;;;;;;;4.13;2.38;;;;;;;;;;5049833;28;20450;-75
2023/06/23 10:08:12;;;;;;;5.45;2.60;;;;;;;;;;5057379;28;20213;-75
2023/06/23 10:10:42;;;;;;;5.60;2.72;;;;;;;;;;5047915;28;20224;-75
2023/06/23 10:13:07;;;;;;;3.97;2.20;;;;;;;;;;5048590;28;20248;-74
2023/06/23 10:15:34;;;;;;;3.42;2.40;;;;;;;;;;5052397;28;20224;-75
2023/06/23 10:17:59;;;;;;;2.35;2.15;;;;;;;;;;5053134;28;20659;-73
2023/06/23 10:20:24;;;;;;;3.65;2.95;;;;;;;;;;5053463;28;20319;-72
2023/06/23 10:22:50;;;;;;;4.38;2.30;;;;;;;;;;5048783;28;20181;-74
2023/06/23 10:25:17;;;;;;;6.45;2.10;;;;;;;;;;5054566;28;20174;-75
2023/06/23 10:27:43;;;;;;;2.55;1.90;;;;;;;;;;5052143;28;20205;-74
2023/06/23 10:30:10;;;;;;;3.58;2.20;;;;;;;;;;5047838;28;20196;-75
2023/06/23 10:32:36;;;;;;;5.55;2.25;;;;;;;;;;5050028;28;20198;-73
2023/06/23 10:35:08;;;;;;;2.20;1.70;;;;;;;;;;5049613;28;20272;-75
2023/06/23 10:37:33;;;;;;;2.95;2.05;;;;;;;;;;5068067;28;20881;-74
2023/06/23 10:40:03;;;;;;;2.30;2.10;;;;;;;;;;5062038;28;20213;-75
2023/06/23 10:42:31;;;;;;;2.03;1.80;;;;;;;;;;5051375;28;20549;-75
2023/06/23 10:44:58;;;;;;;4.82;2.50;;;;;;;;;;5054106;28;20239;-74
2023/06/23 10:47:23;;;;;;;3.13;2.13;;;;;;;;;;5048897;28;20311;-75
2023/06/23 10:49:48;;;;;;;3.50;2.20;;;;;;;;;;5049982;28;22093;-75
2023/06/23 10:52:14;;;;;;;4.63;2.20;;;;;;;;;;5050838;28;20943;-75
2023/06/23 10:54:40;;;;;;;2.40;1.58;;;;;;;;;;5047180;28;20567;-74
2023/06/23 10:57:10;;;;;;;2.55;2.05;;;;;;;;;;5050087;28;20189;-73
2023/06/23 10:59:35;;;;;;;2.67;1.95;;;;;;;;;;5048445;28;20560;-74
2023/06/23 11:02:00;;;;;;;5.50;2.33;;;;;;;;;;5048281;28;20238;-74
2023/06/23 11:04:26;;;;;;;2.72;1.98;;;;;;;;;;5046607;28;20185;-75
2023/06/23 11:07:00;;;;;;;2.30;2.08;;;;;;;;;;5048684;28;20714;-73
2023/06/23 11:09:38;;;;;;;2.95;1.73;;;;;;;;;;5048868;28;20184;-74
2023/06/23 11:12:23;;;;;;;2.38;1.73;;;;;;;;;;5042020;28;20177;-74
2023/06/23 11:14:48;;;;;;;3.75;2.10;;;;;;;;;;5050519;28;20624;-73
2023/06/23 11:17:19;;;;;;;3.28;2.40;;;;;;;;;;5051524;28;20257;-74
2023/06/23 11:19:49;;;;;;;2.45;2.25;;;;;;;;;;5045913;28;20706;-74
2023/06/23 11:22:18;;;;;;;3.95;2.80;;;;;;;;;;5047711;28;20303;-75
2023/06/23 11:24:53;;;;;;;4.00;2.22;;;;;;;;;;5045777;28;20250;-75
2023/06/23 11:27:18;;;;;;;4.88;2.95;;;;;;;;;;5040858;28;20303;-74
2023/06/23 11:30:03;;;;;;;2.72;2.00;;;;;;;;;;5047001;28;20268;-74
2023/06/23 11:32:29;;;;;;;3.08;2.22;;;;;;;;;;5049154;28;20927;-74
2023/06/23 11:34:56;;;;;;;5.00;2.58;;;;;;;;;;5053126;28;20185;-74
2023/06/23 11:37:23;;;;;;;3.85;2.30;;;;;;;;;;5051311;28;20193;-74
2023/06/23 11:39:51;;;;;;;2.58;2.35;;;;;;;;;;5049131;28;20184;-74
2023/06/23 11:42:16;;;;;;;2.60;2.15;;;;;;;;;;5042415;28;20227;-74
2023/06/23 11:44:41;;;;;;;7.03;2.37;;;;;;;;;;5042239;28;20938;-73
2023/06/23 11:47:06;;;;;;;4.43;2.42;;;;;;;;;;5049969;28;20822;-75
2023/06/23 11:49:32;;;;;;;3.28;2.10;;;;;;;;;;5048956;28;20260;-74
2023/06/23 11:52:03;;;;;;;4.40;2.75;;;;;;;;;;5051071;28;20580;-75
2023/06/23 11:54:32;;;;;;;6.10;2.60;;;;;;;;;;5045425;28;20189;-75
2023/06/23 11:56:58;;;;;;;3.20;2.70;;;;;;;;;;5045211;28;20197;-75
2023/06/23 11:59:23;;;;;;;3.88;2.42;;;;;;;;;;5053918;28;20193;-75
2023/06/23 12:01:50;;;;;;;3.25;2.42;;;;;;;;;;5050203;28;20177;-75
2023/06/23 12:04:19;;;;;;;3.92;2.40;;;;;;;;;;5048949;28;20624;-75
2023/06/23 12:06:45;;;;;;;2.50;2.30;;;;;;;;;;5046006;28;20193;-75
2023/06/23 12:09:10;;;;;;;3.60;2.17;;;;;;;;;;5048185;28;20177;-75
2023/06/23 12:11:37;;;;;;;2.72;2.13;;;;;;;;;;5048633;28;20429;-76
2023/06/23 12:14:02;;;;;;;2.80;2.45;;;;;;;;;;5048369;28;20554;-76
2023/06/23 12:16:33;;;;;;;2.92;2.38;;;;;;;;;;5045192;28;20201;-76
2023/06/23 12:18:59;;;;;;;2.50;2.03;;;;;;;;;;5045195;28;21698;-75
2023/06/23 12:21:26;;;;;;;4.20;2.50;;;;;;;;;;5045986;28;20307;-74
2023/06/23 12:23:51;;;;;;;3.38;2.92;;;;;;;;;;5049054;28;20188;-74
2023/06/23 12:26:20;;;;;;;4.57;2.40;;;;;;;;;;5053819;23;20228;-74
2023/06/23 12:28:45;;;;;;;3.72;2.20;;;;;;;;;;5037277;28;20951;-74
2023/06/23 12:31:11;;;;;;;2.97;2.00;;;;;;;;;;5038588;28;20180;-74
2023/06/23 12:33:40;;;;;;;2.78;2.22;;;;;;;;;;5045812;28;20436;-75
2023/06/23 12:36:05;;;;;;;2.80;2.47;;;;;;;;;;5040946;28;20247;-74
2023/06/23 12:38:32;;;;;;;2.63;2.03;;;;;;;;;;5041001;28;20181;-74
2023/06/23 12:41:16;;;;;;;3.40;1.73;;;;;;;;;;5046865;28;20181;-74
2023/06/23 12:43:44;;;;;;;2.35;1.80;;;;;;;;;;5044743;28;20227;-73
2023/06/23 12:46:15;;;;;;;2.50;2.03;;;;;;;;;;5042249;28;20194;-73
2023/06/23 12:48:41;;;;;;;2.67;2.05;;;;;;;;;;5043330;28;20288;-73
2023/06/23 12:51:06;;;;;;;9.95;2.63;;;;;;;;;;5043924;28;20577;-74
2023/06/23 12:53:32;;;;;;;2.78;1.90;;;;;;;;;;5046344;28;20184;-74
2023/06/23 12:55:57;;;;;;;2.28;1.92;;;;;;;;;;5040150;28;20193;-74
2023/06/23 12:58:22;;;;;;;4.03;1.80;;;;;;;;;;5044935;28;20184;-74
2023/06/23 13:00:47;;;;;;;2.75;2.30;;;;;;;;;;5038189;28;20421;-74
2023/06/23 13:03:14;;;;;;;3.05;1.90;;;;;;;;;;5030455;28;20173;-73
2023/06/23 13:05:40;;;;;;;3.70;2.08;;;;;;;;;;5043490;28;20545;-74
2023/06/23 13:08:05;;;;;;;3.88;2.35;;;;;;;;;;5030422;28;20201;-75
2023/06/23 13:10:30;;;;;;;2.63;1.70;;;;;;;;;;5043240;28;20210;-74
2023/06/23 13:12:56;;;;;;;2.47;2.28;;;;;;;;;;5045831;28;20173;-74
2023/06/23 13:15:21;;;;;;;2.20;1.70;;;;;;;;;;5048317;28;20585;-74
2023/06/23 13:17:46;;;;;;;3.22;2.08;;;;;;;;;;5042548;28;20804;-74
2023/06/23 13:20:11;;;;;;;3.10;1.87;;;;;;;;;;5046877;28;20258;-73
2023/06/23 13:22:37;;;;;;;2.45;1.88;;;;;;;;;;5043863;28;20540;-74
2023/06/23 13:25:02;;;;;;;1.98;1.77;;;;;;;;;;5049133;28;20732;-73
2023/06/23 13:27:27;;;;;;;4.20;1.95;;;;;;;;;;5038111;28;20232;-73
2023/06/23 13:29:53;;;;;;;3.72;2.03;;;;;;;;;;5052211;28;20256;-73
2023/06/23 13:32:18;;;;;;;2.95;2.22;;;;;;;;;;5028993;28;20526;-74
2023/06/23 13:34:44;;;;;;;3.00;2.30;;;;;;;;;;5045953;28;20178;-74
2023/06/23 13:37:09;;;;;;;2.55;1.90;;;;;;;;;;5031455;28;20280;-74
2023/06/23 13:39:34;;;;;;;3.93;2.80;;;;;;;;;;5023760;28;20177;-74
2023/06/23 13:42:00;;;;;;;5.33;2.30;;;;;;;;;;5042186;28;20421;-74
2023/06/23 13:44:25;;;;;;;3.78;2.40;;;;;;;;;;5025997;28;20521;-75
2023/06/23 13:46:51;;;;;;;2.67;2.22;;;;;;;;;;5051793;28;20283;-75
2023/06/23 13:49:16;;;;;;;2.65;2.00;;;;;;;;;;5052261;28;20192;-75
2023/06/23 13:51:41;;;;;;;3.03;2.72;;;;;;;;;;5046493;28;20181;-74
2023/06/23 13:54:06;;;;;;;2.30;2.10;;;;;;;;;;5046186;28;20829;-74
2023/06/23 13:56:32;;;;;;;3.33;2.38;;;;;;;;;;5046392;28;20212;-75
2023/06/23 13:58:57;;;;;;;2.40;2.13;;;;;;;;;;5043378;28;20343;-74
2023/06/23 14:01:22;;;;;;;4.32;2.25;;;;;;;;;;5018673;28;20180;-74
2023/06/23 14:03:51;;;;;;;2.90;2.60;;;;;;;;;;5044810;28;20666;-75
2023/06/23 14:06:16;;;;;;;2.53;2.05;;;;;;;;;;5030030;28;20652;-74
2023/06/23 14:08:42;;;;;;;2.65;2.20;;;;;;;;;;5040220;28;20726;-74
2023/06/23 14:11:07;;;;;;;3.00;2.25;;;;;;;;;;5021979;28;20648;-75
2023/06/23 14:13:32;;;;;;;3.33;2.57;;;;;;;;;;5049997;28;20188;-74
2023/06/23 14:15:57;;;;;;;3.65;2.08;;;;;;;;;;5041338;28;20514;-74
2023/06/23 14:18:23;;;;;;;3.87;2.70;;;;;;;;;;5050398;28;20181;-74
2023/06/23 14:20:48;;;;;;;4.03;2.47;;;;;;;;;;5033289;28;20409;-75
2023/06/23 14:23:13;;;;;;;3.17;2.85;;;;;;;;;;5043798;28;20175;-75
2023/06/23 14:25:38;;;;;;;4.30;2.30;;;;;;;;;;5047538;28;20180;-75